This is the latest recevied weather packets stored in our database for station/object VE7PRT-1. If no packets are shown the sender has not sent any weather packets the latest 10 day(s).
| Time | Temp. | Humidity | Pressure | Rain* | Wind** | Luminosity | Snow |
|---|---|---|---|---|---|---|---|
| 1777777359 | 20.56° C | 67% | 1014.5 hPa | 0 mm | - | - | - |
| 1777776514 | 20.56° C | 66% | 1014.5 hPa | 0 mm | - | - | - |
| 1777775774 | 20.56° C | 66% | 1014.5 hPa | 0 mm | - | - | - |
| 1777775007 | 21.11° C | 65% | 1014.5 hPa | 0 mm | - | - | - |
| 1777774171 | 21.67° C | 65% | 1014.6 hPa | 0 mm | - | - | - |
| 1777773384 | 22.22° C | 63% | 1014.7 hPa | 0 mm | - | - | - |
| 1777767647 | 22.78° C | 60% | 1015.1 hPa | 0 mm | - | - | - |
| 1777764459 | 23.89° C | 58% | 1015.6 hPa | 0 mm | - | - | - |
| 1777761147 | 22.78° C | 65% | 1016.4 hPa | 0 mm | - | - | - |
| 1777759534 | 21.11° C | 68% | 1016.6 hPa | 0 mm | - | - | - |
| 1777757138 | 17.78° C | 82% | 1017.1 hPa | 0 mm | - | - | - |
| 1777755519 | 17.22° C | 85% | 1017.5 hPa | 0 mm | - | - | - |
| 1777753794 | 16.11° C | 90% | 1017.5 hPa | 0 mm | - | - | - |
| 1777752927 | 15.56° C | 91% | 1017.7 hPa | 0 mm | - | - | - |
| 1777751333 | 14.44° C | 94% | 1017.9 hPa | 0 mm | - | - | - |
| 1777750507 | 14.44° C | 92% | 1017.9 hPa | 0 mm | - | - | - |
| 1777749624 | 15.56° C | 93% | 1017.8 hPa | 0 mm | - | - | - |
| 1777748773 | 15° C | 94% | 1017.9 hPa | 0 mm | - | - | - |
| 1777747053 | 13.33° C | 96% | 1018 hPa | 0 mm | - | - | - |
| 1777745394 | 13.33° C | 98% | 1018 hPa | 0 mm | - | - | - |
| 1777741198 | 11.67° C | 99% | 1018.1 hPa | 0 mm | - | - | - |
| 1777737974 | 10.56° C | 99% | 1018.2 hPa | 0 mm | - | - | - |
| 1777736434 | 10.56° C | 99% | 1018 hPa | 0 mm | - | - | - |
| 1777735714 | 10.56° C | 99% | 1018 hPa | 0 mm | - | - | - |
| 1777734939 | 10.56° C | 98% | 1018 hPa | 0 mm | - | - | - |
* Rain latest hour (hover to see other rain measurements)
** Current wind speed in m/s (hover to see current wind gust speed)